createdAt,value
2018-05-07T00:02:31.962Z,11.90
2018-05-07T00:05:00.366Z,12.40
2018-05-07T00:07:31.984Z,12.40
2018-05-07T00:10:00.107Z,12.20
2018-05-07T00:12:30.003Z,12.30
2018-05-07T00:14:58.132Z,11.90
2018-05-07T00:17:28.570Z,12.20
2018-05-07T00:19:57.025Z,12.10
2018-05-07T00:22:25.669Z,12.10
2018-05-07T00:24:53.414Z,12.00
2018-05-07T00:27:32.951Z,11.90
2018-05-07T00:32:35.622Z,12.10
2018-05-07T00:35:03.725Z,12.00
2018-05-07T00:37:41.367Z,12.00
2018-05-07T00:40:09.795Z,11.90
2018-05-07T00:42:50.593Z,11.80
2018-05-07T00:45:18.314Z,11.70
2018-05-07T00:47:48.687Z,11.80
2018-05-07T00:50:17.903Z,11.70
2018-05-07T00:52:53.915Z,11.50
2018-05-07T00:55:22.802Z,11.60
2018-05-07T00:57:55.927Z,11.60
2018-05-07T01:02:52.648Z,12.10
2018-05-07T01:05:21.064Z,11.40
2018-05-07T01:07:59.114Z,11.40
2018-05-07T01:10:27.930Z,11.40
2018-05-07T01:12:57.383Z,11.30
2018-05-07T01:15:25.814Z,11.20
2018-05-07T01:17:56.266Z,11.10
2018-05-07T01:20:24.707Z,11.00
2018-05-07T01:23:04.359Z,11.00
2018-05-07T01:25:32.837Z,10.90
2018-05-07T01:28:04.412Z,10.80
2018-05-07T01:30:33.248Z,10.80
2018-05-07T01:33:00.885Z,11.10
2018-05-07T01:35:29.272Z,10.70
2018-05-07T01:38:03.063Z,10.60
2018-05-07T01:40:30.686Z,10.40
2018-05-07T01:43:00.156Z,10.50
2018-05-07T01:45:28.211Z,10.60
2018-05-07T01:48:11.175Z,10.60
2018-05-07T01:50:39.612Z,10.50
2018-05-07T01:53:08.052Z,10.50
2018-05-07T01:55:36.140Z,10.10
2018-05-07T01:58:04.947Z,10.40
2018-05-07T02:00:33.006Z,10.60
2018-05-07T02:03:10.137Z,10.10
2018-05-07T02:05:38.254Z,10.10
2018-05-07T02:10:36.454Z,10.20
2018-05-07T02:15:58.953Z,10.20
2018-05-07T02:18:26.993Z,10.30
2018-05-07T02:21:04.998Z,10.40
2018-05-07T02:23:33.437Z,10.70
2018-05-07T02:34:36.850Z,10.70
2018-05-07T02:37:04.933Z,10.60
2018-05-07T02:39:37.412Z,10.40
2018-05-07T02:42:05.871Z,10.30
2018-05-07T02:44:55.012Z,10.30
2018-05-07T02:47:23.094Z,11.00
2018-05-07T02:49:51.555Z,10.20
2018-05-07T02:52:19.987Z,10.30
2018-05-07T02:54:48.865Z,10.30
2018-05-07T02:57:18.043Z,10.30
2018-05-07T02:59:49.792Z,10.30
2018-05-07T03:02:17.449Z,10.20
2018-05-07T03:04:45.918Z,10.10
2018-05-07T03:07:14.366Z,10.00
2018-05-07T03:09:42.837Z,10.00
2018-05-07T03:12:11.259Z,10.00
2018-05-07T03:14:38.955Z,10.20
2018-05-07T03:17:08.210Z,10.00
2018-05-07T03:19:45.157Z,9.90
2018-05-07T03:22:13.593Z,9.80
2018-05-07T03:24:50.017Z,9.80
2018-05-07T03:27:19.114Z,9.70
2018-05-07T03:29:49.188Z,9.70
2018-05-07T03:32:17.597Z,9.70
2018-05-07T03:34:50.858Z,9.70
2018-05-07T03:37:18.528Z,9.50
2018-05-07T03:40:07.095Z,9.60
2018-05-07T03:42:35.105Z,9.60
2018-05-07T03:45:24.180Z,9.60
2018-05-07T03:47:53.329Z,9.60
2018-05-07T03:50:32.749Z,9.50
2018-05-07T03:53:01.158Z,9.50
2018-05-07T03:55:37.995Z,9.50
2018-05-07T03:58:06.043Z,9.80
2018-05-07T04:00:35.186Z,9.50
2018-05-07T04:03:03.590Z,9.50
2018-05-07T04:05:35.243Z,9.50
2018-05-07T04:08:02.857Z,9.60
2018-05-07T04:10:35.628Z,9.50
2018-05-07T04:13:04.623Z,9.40
2018-05-07T04:15:44.008Z,8.70
2018-05-07T04:18:25.316Z,9.50
2018-05-07T04:21:12.250Z,9.50
2018-05-07T04:23:54.084Z,9.50
2018-05-07T04:26:22.855Z,9.50
2018-05-07T04:28:56.052Z,9.60
2018-05-07T04:31:24.514Z,9.60
2018-05-07T04:33:52.968Z,9.70
2018-05-07T04:36:21.837Z,9.70
2018-05-07T04:38:49.959Z,10.10
2018-05-07T04:41:18.347Z,9.60
2018-05-07T04:43:50.182Z,9.80
2018-05-07T04:46:18.602Z,10.10
2018-05-07T04:48:48.101Z,10.40
2018-05-07T04:51:16.117Z,10.20
2018-05-07T04:53:43.800Z,10.40
2018-05-07T04:56:12.218Z,10.60
2018-05-07T04:58:41.742Z,10.80
2018-05-07T05:01:09.440Z,11.10
2018-05-07T05:03:43.853Z,11.00
2018-05-07T05:06:12.272Z,11.00
2018-05-07T05:08:41.338Z,11.30
2018-05-07T05:11:09.790Z,11.30
2018-05-07T05:13:38.260Z,11.30
2018-05-07T05:16:06.311Z,11.40
2018-05-07T05:18:34.333Z,11.50
2018-05-07T05:21:02.579Z,11.60
2018-05-07T05:23:31.257Z,11.90
2018-05-07T05:25:59.723Z,11.80
2018-05-07T05:28:34.876Z,12.00
2018-05-07T05:31:03.281Z,12.10
2018-05-07T05:33:31.724Z,12.10
2018-05-07T05:36:00.899Z,12.20
2018-05-07T05:38:32.353Z,12.40
2018-05-07T05:41:00.739Z,12.40
2018-05-07T05:43:31.291Z,12.50
2018-05-07T05:45:59.693Z,12.70
2018-05-07T05:48:30.501Z,12.80
2018-05-07T05:50:58.931Z,12.80
2018-05-07T05:53:30.270Z,12.60
2018-05-07T05:55:57.920Z,13.30
2018-05-07T05:58:27.034Z,13.10
2018-05-07T06:00:54.706Z,13.20
2018-05-07T06:03:25.107Z,13.40
2018-05-07T06:05:53.557Z,13.50
2018-05-07T06:08:22.075Z,13.60
2018-05-07T06:10:49.781Z,13.70
2018-05-07T06:13:17.885Z,14.00
2018-05-07T06:15:46.673Z,14.10
2018-05-07T06:18:15.725Z,14.20
2018-05-07T06:20:44.156Z,14.30
2018-05-07T06:23:12.876Z,14.20
2018-05-07T06:25:40.578Z,14.40
2018-05-07T06:28:08.633Z,14.60
2018-05-07T06:30:36.716Z,14.80
2018-05-07T06:33:06.887Z,14.90
2018-05-07T06:35:34.954Z,15.10
2018-05-07T06:38:03.839Z,15.20
2018-05-07T06:40:31.506Z,15.10
2018-05-07T06:43:00.591Z,15.60
2018-05-07T06:45:29.005Z,15.70
2018-05-07T06:47:57.449Z,15.80
2018-05-07T06:50:26.257Z,15.90
2018-05-07T06:53:05.744Z,16.00
2018-05-07T06:58:04.191Z,16.40
2018-05-07T07:00:32.649Z,16.50
2018-05-07T07:03:02.077Z,16.70
2018-05-07T07:05:29.788Z,16.90
2018-05-07T07:07:58.909Z,17.00
2018-05-07T07:10:27.478Z,17.20
2018-05-07T07:12:59.462Z,17.30
2018-05-07T07:15:27.169Z,17.40
2018-05-07T07:17:56.637Z,17.60
2018-05-07T07:20:25.074Z,17.80
2018-05-07T07:22:53.117Z,18.40
2018-05-07T07:25:22.263Z,18.20
2018-05-07T07:27:51.181Z,18.40
2018-05-07T07:30:19.986Z,18.40
2018-05-07T07:32:48.438Z,18.60
2018-05-07T07:35:17.256Z,16.80
2018-05-07T07:37:46.708Z,18.70
2018-05-07T07:40:15.139Z,18.90
2018-05-07T07:42:43.609Z,19.00
2018-05-07T07:45:12.022Z,19.10
2018-05-07T07:47:41.072Z,19.20
2018-05-07T07:50:09.945Z,19.30
2018-05-07T07:52:38.443Z,19.50
2018-05-07T07:55:06.468Z,19.60
2018-05-07T07:57:37.786Z,19.70
2018-05-07T08:00:07.021Z,19.80
2018-05-07T08:02:36.493Z,19.90
2018-05-07T08:05:04.589Z,20.00
2018-05-07T08:07:39.837Z,20.30
2018-05-07T08:10:08.624Z,20.20
2018-05-07T08:12:39.777Z,20.30
2018-05-07T08:15:08.936Z,20.40
2018-05-07T08:17:36.612Z,20.70
2018-05-07T08:20:05.435Z,20.60
2018-05-07T08:22:33.846Z,20.90
2018-05-07T08:25:01.579Z,21.10
2018-05-07T08:27:32.408Z,20.80
2018-05-07T08:30:00.868Z,20.80
2018-05-07T08:32:28.587Z,20.90
2018-05-07T08:34:56.816Z,20.90
2018-05-07T08:39:53.709Z,21.20
2018-05-07T08:42:22.605Z,21.40
2018-05-07T08:44:50.606Z,21.60
2018-05-07T08:47:19.466Z,21.70
2018-05-07T08:49:47.241Z,21.90
2018-05-07T08:52:15.759Z,22.00
2018-05-07T08:54:44.917Z,22.10
2018-05-07T08:57:15.038Z,22.10
2018-05-07T09:02:12.515Z,22.20
2018-05-07T09:04:40.583Z,22.30
2018-05-07T09:07:11.082Z,22.40
2018-05-07T09:09:39.206Z,22.40
2018-05-07T09:12:07.708Z,22.40
2018-05-07T09:17:06.145Z,22.50
2018-05-07T09:19:34.592Z,22.60
2018-05-07T09:22:02.307Z,22.50
2018-05-07T09:26:59.872Z,22.90
2018-05-07T09:29:28.382Z,23.10
2018-05-07T09:31:56.447Z,23.30
2018-05-07T09:34:25.635Z,23.30
2018-05-07T09:36:55.889Z,23.40
2018-05-07T09:39:24.714Z,23.50
2018-05-07T09:41:57.005Z,23.80
2018-05-07T09:44:25.102Z,24.00
2018-05-07T09:46:53.558Z,23.90
2018-05-07T09:49:22.833Z,24.00
2018-05-07T09:51:57.533Z,24.10
2018-05-07T09:54:26.008Z,24.20
2018-05-07T09:56:55.681Z,24.90
2018-05-07T09:59:24.487Z,24.10
2018-05-07T10:01:53.402Z,24.50
2018-05-07T10:04:21.780Z,24.60
2018-05-07T10:06:51.326Z,24.40
2018-05-07T10:09:19.557Z,24.30
2018-05-07T10:11:48.064Z,24.30
2018-05-07T10:14:16.576Z,24.40
2018-05-07T10:16:44.604Z,24.60
2018-05-07T10:19:13.403Z,24.70
2018-05-07T10:24:10.612Z,25.20
2018-05-07T10:26:39.750Z,24.80
2018-05-07T10:29:07.957Z,25.10
2018-05-07T10:31:37.149Z,24.90
2018-05-07T10:36:33.923Z,24.50
2018-05-07T10:39:02.597Z,24.80
2018-05-07T10:41:31.045Z,24.70
2018-05-07T10:43:59.150Z,24.80
2018-05-07T10:46:27.572Z,25.00
2018-05-07T10:48:55.666Z,25.30
2018-05-07T10:51:23.390Z,24.70
2018-05-07T10:53:52.868Z,25.60
2018-05-07T10:56:20.934Z,25.40
2018-05-07T10:58:48.642Z,26.10
2018-05-07T11:01:17.057Z,25.50
2018-05-07T11:09:34.231Z,25.60
2018-05-07T11:12:02.314Z,25.60
2018-05-07T11:14:30.497Z,26.10
2018-05-07T11:16:58.914Z,25.70
2018-05-07T11:19:26.651Z,25.70
2018-05-07T11:21:55.800Z,25.70
2018-05-07T11:24:25.201Z,25.80
2018-05-07T11:26:54.093Z,25.70
2018-05-07T11:29:24.299Z,25.80
2018-05-07T11:31:51.952Z,26.20
2018-05-07T11:34:20.556Z,25.60
2018-05-07T11:36:48.221Z,26.60
2018-05-07T11:39:16.609Z,26.50
2018-05-07T11:41:45.767Z,26.50
2018-05-07T11:44:15.934Z,26.50
2018-05-07T11:46:44.072Z,26.70
2018-05-07T11:49:12.226Z,27.30
2018-05-07T11:51:41.232Z,26.70
2018-05-07T11:54:10.684Z,26.70
2018-05-07T11:59:08.103Z,26.80
2018-05-07T12:01:36.234Z,26.90
2018-05-07T12:04:04.354Z,27.30
2018-05-07T12:06:32.000Z,27.40
2018-05-07T12:09:01.087Z,27.00
2018-05-07T12:11:29.839Z,27.20
2018-05-07T12:13:58.323Z,27.50
2018-05-07T12:16:25.972Z,27.60
2018-05-07T12:18:54.633Z,28.00
2018-05-07T12:21:22.886Z,27.30
2018-05-07T12:23:52.307Z,27.30
2018-05-07T12:26:20.757Z,27.20
2018-05-07T12:28:48.824Z,27.10
2018-05-07T12:31:17.360Z,27.30
2018-05-07T12:36:15.474Z,27.20
2018-05-07T12:38:44.118Z,27.10
2018-05-07T12:41:12.186Z,26.90
2018-05-07T12:43:39.896Z,27.70
2018-05-07T12:48:38.511Z,27.50
2018-05-07T12:51:07.352Z,27.50
2018-05-07T12:53:37.162Z,27.60
2018-05-07T12:56:04.845Z,28.10
2018-05-07T12:58:33.335Z,27.80
2018-05-07T13:01:02.502Z,27.80
2018-05-07T13:06:03.862Z,28.30
2018-05-07T13:08:33.306Z,27.80
2018-05-07T13:13:30.495Z,27.90
2018-05-07T13:15:59.277Z,28.00
2018-05-07T13:18:27.391Z,27.70
2018-05-07T13:20:55.844Z,27.90
2018-05-07T13:23:25.593Z,27.90
2018-05-07T13:30:55.787Z,28.10
2018-05-07T13:33:25.313Z,28.40
2018-05-07T13:35:53.768Z,28.50
2018-05-07T13:38:24.603Z,28.50
2018-05-07T13:40:52.669Z,28.40
2018-05-07T13:43:20.850Z,28.00
2018-05-07T13:45:49.355Z,28.30
2018-05-07T13:48:28.680Z,28.30
2018-05-07T13:50:57.375Z,28.70
2018-05-07T13:53:25.520Z,28.40
2018-05-07T13:55:53.583Z,28.30
2018-05-07T13:58:26.710Z,28.40
2018-05-07T14:00:55.603Z,28.90
2018-05-07T14:03:34.200Z,28.90
2018-05-07T14:08:52.361Z,29.00
2018-05-07T14:11:20.439Z,29.00
2018-05-07T14:14:06.098Z,29.20
2018-05-07T14:16:33.743Z,29.10
2018-05-07T14:19:05.333Z,29.20
2018-05-07T14:21:33.405Z,29.30
2018-05-07T14:24:01.176Z,29.60
2018-05-07T14:26:29.260Z,29.60
2018-05-07T14:28:59.314Z,29.70
2018-05-07T14:31:27.033Z,30.40
2018-05-07T14:33:56.082Z,30.40
2018-05-07T14:36:24.527Z,30.40
2018-05-07T14:38:54.062Z,30.80
2018-05-07T14:41:24.278Z,30.90
2018-05-07T14:44:16.111Z,30.90
2018-05-07T14:46:44.933Z,31.30
2018-05-07T14:49:14.612Z,31.80
2018-05-07T14:51:43.011Z,31.70
2018-05-07T14:54:15.197Z,32.50
2018-05-07T14:56:43.250Z,31.70
2018-05-07T14:59:11.916Z,32.00
2018-05-07T15:01:39.625Z,31.80
2018-05-07T15:04:17.530Z,32.60
2018-05-07T15:06:46.267Z,32.60
2018-05-07T15:09:15.325Z,32.30
2018-05-07T15:11:43.737Z,33.20
2018-05-07T15:16:47.238Z,33.20
2018-05-07T15:19:17.676Z,33.10
2018-05-07T15:21:45.352Z,32.90
2018-05-07T15:24:15.264Z,33.00
2018-05-07T15:26:42.942Z,32.90
2018-05-07T15:29:18.327Z,33.40
2018-05-07T15:31:45.972Z,33.40
2018-05-07T15:34:14.385Z,34.00
2018-05-07T15:39:11.098Z,34.10
2018-05-07T15:41:40.444Z,34.70
2018-05-07T15:44:12.734Z,34.70
2018-05-07T15:46:41.189Z,34.30
2018-05-07T15:49:12.308Z,34.30
2018-05-07T15:51:40.089Z,35.00
2018-05-07T15:54:09.530Z,34.60
2018-05-07T15:56:37.189Z,35.30
2018-05-07T15:59:08.520Z,35.40
2018-05-07T16:01:36.937Z,35.10
2018-05-07T16:04:14.934Z,35.90
2018-05-07T16:06:44.107Z,35.50
2018-05-07T16:09:17.812Z,35.90
2018-05-07T16:11:45.504Z,35.50
2018-05-07T16:14:14.607Z,34.90
2018-05-07T16:16:42.702Z,34.90
2018-05-07T16:19:12.650Z,34.20
2018-05-07T16:21:40.414Z,34.20
2018-05-07T16:24:08.992Z,35.40
2018-05-07T16:26:37.151Z,35.30
2018-05-07T16:29:05.783Z,35.50
2018-05-07T16:31:33.521Z,35.60
2018-05-07T16:34:05.806Z,35.70
2018-05-07T16:36:33.458Z,34.40
2018-05-07T16:39:06.060Z,35.10
2018-05-07T16:44:03.552Z,34.20
2018-05-07T16:46:32.740Z,34.50
2018-05-07T16:49:02.240Z,34.60
2018-05-07T16:51:30.649Z,35.00
2018-05-07T16:54:14.956Z,35.20
2018-05-07T16:56:42.753Z,34.10
2018-05-07T16:59:22.128Z,34.20
2018-05-07T17:01:49.905Z,33.40
2018-05-07T17:04:18.349Z,34.40
2018-05-07T17:06:45.998Z,35.80
2018-05-07T17:09:15.787Z,35.80
2018-05-07T17:11:43.840Z,35.70
2018-05-07T17:14:11.649Z,36.00
2018-05-07T17:16:39.987Z,35.80
2018-05-07T17:19:29.440Z,34.80
2018-05-07T17:21:57.529Z,35.10
2018-05-07T17:24:29.110Z,33.70
2018-05-07T17:26:57.182Z,34.20
2018-05-07T17:29:30.550Z,33.90
2018-05-07T17:31:58.989Z,34.00
2018-05-07T17:34:38.084Z,34.60
2018-05-07T17:37:06.531Z,34.10
2018-05-07T17:39:47.191Z,33.20
2018-05-07T17:42:15.675Z,31.60
2018-05-07T17:44:57.240Z,31.00
2018-05-07T17:47:37.952Z,28.90
2018-05-07T17:50:06.413Z,27.60
2018-05-07T17:52:34.910Z,26.80
2018-05-07T17:55:03.328Z,26.30
2018-05-07T18:00:24.466Z,25.20
2018-05-07T18:02:53.293Z,24.90
2018-05-07T18:05:35.819Z,24.50
2018-05-07T18:08:04.403Z,24.10
2018-05-07T18:10:37.452Z,24.00
2018-05-07T18:13:05.569Z,23.60
2018-05-07T18:18:33.004Z,23.10
2018-05-07T18:21:00.728Z,23.50
2018-05-07T18:23:30.093Z,23.20
2018-05-07T18:25:58.529Z,23.00
2018-05-07T18:28:43.356Z,23.00
2018-05-07T18:31:11.427Z,22.80
2018-05-07T18:36:22.077Z,22.40
2018-05-07T18:39:08.497Z,22.80
2018-05-07T18:41:36.161Z,22.10
2018-05-07T18:44:10.677Z,21.80
2018-05-07T18:46:38.389Z,21.50
2018-05-07T18:49:06.478Z,21.30
2018-05-07T18:51:34.134Z,21.50
2018-05-07T18:54:07.796Z,21.10
2018-05-07T19:01:37.605Z,19.80
2018-05-07T19:04:05.690Z,20.60
2018-05-07T19:06:33.773Z,19.90
2018-05-07T19:11:31.631Z,20.10
2018-05-07T19:14:00.097Z,20.00
2018-05-07T19:16:29.028Z,19.90
2018-05-07T19:19:02.576Z,19.70
2018-05-07T19:21:31.155Z,19.60
2018-05-07T19:24:04.435Z,19.40
2018-05-07T19:26:32.880Z,19.40
2018-05-07T19:29:01.701Z,19.30
2018-05-07T19:31:29.413Z,19.30
2018-05-07T19:33:59.621Z,19.00
2018-05-07T19:36:28.123Z,18.90
2018-05-07T19:38:58.513Z,18.90
2018-05-07T19:41:26.920Z,18.70
2018-05-07T19:43:55.629Z,18.30
2018-05-07T19:46:23.684Z,18.60
2018-05-07T19:49:02.806Z,18.60
2018-05-07T19:54:04.228Z,18.40
2018-05-07T19:56:32.288Z,18.00
2018-05-07T19:59:04.372Z,18.20
2018-05-07T20:01:32.016Z,18.50
2018-05-07T20:04:01.537Z,18.10
2018-05-07T20:06:29.949Z,18.00
2018-05-07T20:08:58.580Z,18.00
2018-05-07T20:11:27.053Z,18.00
2018-05-07T20:13:59.087Z,17.90
2018-05-07T20:16:27.518Z,17.70
2018-05-07T20:18:57.276Z,17.70
2018-05-07T20:21:25.723Z,17.50
2018-05-07T20:23:58.764Z,17.50
2018-05-07T20:26:27.197Z,17.40
2018-05-07T20:28:58.118Z,16.50
2018-05-07T20:31:25.834Z,17.40
2018-05-07T20:33:56.712Z,17.20
2018-05-07T20:36:25.229Z,17.10
2018-05-07T20:38:53.755Z,17.00
2018-05-07T20:41:21.833Z,17.10
2018-05-07T20:43:52.326Z,16.80
2018-05-07T20:46:19.988Z,16.70
2018-05-07T20:48:56.111Z,16.40
2018-05-07T20:51:24.906Z,16.50
2018-05-07T20:53:54.139Z,16.50
2018-05-07T20:56:22.929Z,16.40
2018-05-07T20:58:50.605Z,16.30
2018-05-07T21:01:19.603Z,16.40
2018-05-07T21:03:54.327Z,16.30
2018-05-07T21:06:22.782Z,16.20
2018-05-07T21:09:04.049Z,16.10
2018-05-07T21:11:32.502Z,16.10
2018-05-07T21:16:57.687Z,15.80
2018-05-07T21:19:26.121Z,15.80
2018-05-07T21:21:55.325Z,15.70
2018-05-07T21:24:36.144Z,15.80
2018-05-07T21:27:05.375Z,15.60
2018-05-07T21:29:41.906Z,15.80
2018-05-07T21:32:10.451Z,15.50
2018-05-07T21:34:45.946Z,15.20
2018-05-07T21:37:14.501Z,15.30
2018-05-07T21:39:51.953Z,15.60
2018-05-07T21:42:20.801Z,15.20
2018-05-07T21:44:50.016Z,15.20
2018-05-07T21:47:19.217Z,15.20
2018-05-07T21:49:47.689Z,15.10
2018-05-07T21:52:15.395Z,14.90
2018-05-07T21:54:51.550Z,14.90
2018-05-07T21:57:20.036Z,14.90
2018-05-07T22:00:00.615Z,14.30
2018-05-07T22:02:29.570Z,14.80
2018-05-07T22:04:58.695Z,14.90
2018-05-07T22:07:27.252Z,14.70
2018-05-07T22:12:31.146Z,14.70
2018-05-07T22:17:29.237Z,14.50
2018-05-07T22:19:57.870Z,14.50
2018-05-07T22:22:28.305Z,14.30
2018-05-07T22:25:03.064Z,14.20
2018-05-07T22:27:31.470Z,14.00
2018-05-07T22:30:03.735Z,14.00
2018-05-07T22:32:31.790Z,13.90
2018-05-07T22:35:06.934Z,13.90
2018-05-07T22:37:36.094Z,13.80
2018-05-07T22:40:17.464Z,13.60
2018-05-07T22:42:45.977Z,13.70
2018-05-07T22:45:14.528Z,13.70
2018-05-07T22:53:05.353Z,13.60
2018-05-07T22:58:02.872Z,13.60
2018-05-07T23:00:31.307Z,13.50
2018-05-07T23:03:10.400Z,13.50
2018-05-07T23:05:38.830Z,13.50
2018-05-07T23:08:20.052Z,13.40
2018-05-07T23:10:48.458Z,13.40
2018-05-07T23:13:37.150Z,13.30
2018-05-07T23:16:05.599Z,13.30
2018-05-07T23:21:03.123Z,13.50
2018-05-07T23:23:34.917Z,13.30
2018-05-07T23:26:03.020Z,13.50
2018-05-07T23:28:38.467Z,13.30
2018-05-07T23:31:06.924Z,13.60
2018-05-07T23:33:35.624Z,13.90
2018-05-07T23:36:03.288Z,13.90
2018-05-07T23:38:37.981Z,13.60
2018-05-07T23:41:06.402Z,13.50
2018-05-07T23:43:39.936Z,13.50
2018-05-07T23:46:08.346Z,13.40
2018-05-07T23:48:56.110Z,13.30
2018-05-07T23:51:24.907Z,13.20
2018-05-07T23:54:04.516Z,13.10
2018-05-07T23:56:32.151Z,12.90
2018-05-07T23:59:07.450Z,13.00
